sensor_id;sensor_type;location;lat;lon;timestamp;P1;durP1;ratioP1;P2;durP2;ratioP2
40252;SDS011;25972;51.854;4.534;2023-05-19T00:01:33;5.55;;;1.98;;
40252;SDS011;25972;51.854;4.534;2023-05-19T00:04:02;5.10;;;1.90;;
40252;SDS011;25972;51.854;4.534;2023-05-19T00:06:30;4.15;;;1.92;;
40252;SDS011;25972;51.854;4.534;2023-05-19T00:09:00;4.32;;;1.88;;
40252;SDS011;25972;51.854;4.534;2023-05-19T00:11:28;6.30;;;1.95;;
40252;SDS011;25972;51.854;4.534;2023-05-19T00:13:57;7.05;;;2.10;;
40252;SDS011;25972;51.854;4.534;2023-05-19T00:16:24;7.07;;;1.77;;
40252;SDS011;25972;51.854;4.534;2023-05-19T00:18:51;5.18;;;2.00;;
40252;SDS011;25972;51.854;4.534;2023-05-19T00:21:18;5.47;;;1.58;;
40252;SDS011;25972;51.854;4.534;2023-05-19T00:23:45;5.60;;;2.05;;
40252;SDS011;25972;51.854;4.534;2023-05-19T00:26:11;4.63;;;2.08;;
40252;SDS011;25972;51.854;4.534;2023-05-19T00:28:42;4.97;;;1.90;;
40252;SDS011;25972;51.854;4.534;2023-05-19T00:31:08;4.30;;;1.77;;
40252;SDS011;25972;51.854;4.534;2023-05-19T00:33:34;5.45;;;1.90;;
40252;SDS011;25972;51.854;4.534;2023-05-19T00:36:01;5.63;;;1.65;;
40252;SDS011;25972;51.854;4.534;2023-05-19T00:38:29;6.15;;;2.45;;
40252;SDS011;25972;51.854;4.534;2023-05-19T00:41:00;9.35;;;2.38;;
40252;SDS011;25972;51.854;4.534;2023-05-19T00:43:26;7.35;;;1.90;;
40252;SDS011;25972;51.854;4.534;2023-05-19T00:45:54;3.85;;;1.80;;
40252;SDS011;25972;51.854;4.534;2023-05-19T00:48:21;3.85;;;2.05;;
40252;SDS011;25972;51.854;4.534;2023-05-19T00:50:49;4.47;;;2.10;;
40252;SDS011;25972;51.854;4.534;2023-05-19T00:53:16;5.15;;;1.33;;
40252;SDS011;25972;51.854;4.534;2023-05-19T00:55:43;5.90;;;2.13;;
40252;SDS011;25972;51.854;4.534;2023-05-19T00:58:10;4.55;;;2.00;;
40252;SDS011;25972;51.854;4.534;2023-05-19T01:00:38;7.63;;;2.30;;
40252;SDS011;25972;51.854;4.534;2023-05-19T01:03:05;5.53;;;2.25;;
40252;SDS011;25972;51.854;4.534;2023-05-19T01:05:41;3.85;;;1.80;;
40252;SDS011;25972;51.854;4.534;2023-05-19T01:08:10;9.02;;;2.30;;
40252;SDS011;25972;51.854;4.534;2023-05-19T01:10:36;4.47;;;1.60;;
40252;SDS011;25972;51.854;4.534;2023-05-19T01:13:03;6.13;;;2.00;;
40252;SDS011;25972;51.854;4.534;2023-05-19T01:15:36;5.93;;;2.40;;
40252;SDS011;25972;51.854;4.534;2023-05-19T01:18:08;4.07;;;2.15;;
40252;SDS011;25972;51.854;4.534;2023-05-19T01:20:40;2.85;;;1.70;;
40252;SDS011;25972;51.854;4.534;2023-05-19T01:28:58;5.82;;;2.20;;
40252;SDS011;25972;51.854;4.534;2023-05-19T01:31:46;6.50;;;1.70;;
40252;SDS011;25972;51.854;4.534;2023-05-19T01:34:15;6.03;;;2.20;;
40252;SDS011;25972;51.854;4.534;2023-05-19T01:36:44;4.32;;;1.95;;
40252;SDS011;25972;51.854;4.534;2023-05-19T01:39:13;8.50;;;2.47;;
40252;SDS011;25972;51.854;4.534;2023-05-19T01:41:41;5.57;;;2.33;;
40252;SDS011;25972;51.854;4.534;2023-05-19T01:44:08;5.25;;;2.15;;
40252;SDS011;25972;51.854;4.534;2023-05-19T01:46:35;4.25;;;2.10;;
40252;SDS011;25972;51.854;4.534;2023-05-19T01:49:02;7.32;;;2.03;;
40252;SDS011;25972;51.854;4.534;2023-05-19T01:51:29;8.50;;;2.20;;
40252;SDS011;25972;51.854;4.534;2023-05-19T01:53:56;5.35;;;2.45;;
40252;SDS011;25972;51.854;4.534;2023-05-19T01:56:25;4.82;;;2.10;;
40252;SDS011;25972;51.854;4.534;2023-05-19T01:59:56;4.15;;;2.15;;
40252;SDS011;25972;51.854;4.534;2023-05-19T02:11:21;8.02;;;3.63;;
40252;SDS011;25972;51.854;4.534;2023-05-19T02:14:02;11.82;;;4.90;;
40252;SDS011;25972;51.854;4.534;2023-05-19T02:16:41;8.50;;;4.00;;
40252;SDS011;25972;51.854;4.534;2023-05-19T02:19:20;7.55;;;3.60;;
40252;SDS011;25972;51.854;4.534;2023-05-19T02:21:54;8.15;;;3.13;;
40252;SDS011;25972;51.854;4.534;2023-05-19T02:24:20;5.85;;;2.47;;
40252;SDS011;25972;51.854;4.534;2023-05-19T02:26:47;4.63;;;2.22;;
40252;SDS011;25972;51.854;4.534;2023-05-19T02:29:14;5.97;;;2.22;;
40252;SDS011;25972;51.854;4.534;2023-05-19T02:31:41;7.13;;;2.30;;
40252;SDS011;25972;51.854;4.534;2023-05-19T02:34:07;9.27;;;2.33;;
40252;SDS011;25972;51.854;4.534;2023-05-19T02:36:35;6.43;;;2.50;;
40252;SDS011;25972;51.854;4.534;2023-05-19T02:39:05;6.32;;;2.33;;
40252;SDS011;25972;51.854;4.534;2023-05-19T02:41:31;4.10;;;2.10;;
40252;SDS011;25972;51.854;4.534;2023-05-19T02:43:57;8.40;;;2.08;;
40252;SDS011;25972;51.854;4.534;2023-05-19T02:46:24;5.82;;;2.55;;
40252;SDS011;25972;51.854;4.534;2023-05-19T02:48:50;6.85;;;2.53;;
40252;SDS011;25972;51.854;4.534;2023-05-19T02:51:18;5.82;;;2.88;;
40252;SDS011;25972;51.854;4.534;2023-05-19T02:53:44;7.15;;;1.92;;
40252;SDS011;25972;51.854;4.534;2023-05-19T02:56:10;7.40;;;2.55;;
40252;SDS011;25972;51.854;4.534;2023-05-19T02:58:37;4.25;;;2.05;;
40252;SDS011;25972;51.854;4.534;2023-05-19T03:01:04;5.20;;;2.53;;
40252;SDS011;25972;51.854;4.534;2023-05-19T03:03:30;6.40;;;2.33;;
40252;SDS011;25972;51.854;4.534;2023-05-19T03:05:57;7.28;;;2.30;;
40252;SDS011;25972;51.854;4.534;2023-05-19T03:08:23;6.55;;;2.22;;
40252;SDS011;25972;51.854;4.534;2023-05-19T03:10:49;9.13;;;2.92;;
40252;SDS011;25972;51.854;4.534;2023-05-19T03:13:15;3.67;;;2.10;;
40252;SDS011;25972;51.854;4.534;2023-05-19T03:15:41;9.05;;;2.17;;
40252;SDS011;25972;51.854;4.534;2023-05-19T03:18:07;5.95;;;2.17;;
40252;SDS011;25972;51.854;4.534;2023-05-19T03:20:33;5.55;;;2.08;;
40252;SDS011;25972;51.854;4.534;2023-05-19T03:22:59;6.32;;;2.38;;
40252;SDS011;25972;51.854;4.534;2023-05-19T03:25:25;5.22;;;2.22;;
40252;SDS011;25972;51.854;4.534;2023-05-19T03:27:52;10.30;;;2.33;;
40252;SDS011;25972;51.854;4.534;2023-05-19T03:30:18;4.68;;;2.20;;
40252;SDS011;25972;51.854;4.534;2023-05-19T03:33:10;6.35;;;2.40;;
40252;SDS011;25972;51.854;4.534;2023-05-19T03:35:38;4.90;;;2.00;;
40252;SDS011;25972;51.854;4.534;2023-05-19T03:38:04;5.07;;;2.47;;
40252;SDS011;25972;51.854;4.534;2023-05-19T03:40:30;5.50;;;2.40;;
40252;SDS011;25972;51.854;4.534;2023-05-19T03:43:02;6.63;;;2.37;;
40252;SDS011;25972;51.854;4.534;2023-05-19T03:45:29;5.75;;;2.50;;
40252;SDS011;25972;51.854;4.534;2023-05-19T03:47:55;5.38;;;2.20;;
40252;SDS011;25972;51.854;4.534;2023-05-19T03:50:42;6.93;;;2.70;;
40252;SDS011;25972;51.854;4.534;2023-05-19T03:53:16;12.25;;;2.50;;
40252;SDS011;25972;51.854;4.534;2023-05-19T03:55:42;6.45;;;2.50;;
40252;SDS011;25972;51.854;4.534;2023-05-19T03:58:09;6.03;;;2.40;;
40252;SDS011;25972;51.854;4.534;2023-05-19T04:00:35;6.13;;;2.50;;
40252;SDS011;25972;51.854;4.534;2023-05-19T04:03:01;8.55;;;2.50;;
40252;SDS011;25972;51.854;4.534;2023-05-19T04:05:27;8.07;;;2.40;;
40252;SDS011;25972;51.854;4.534;2023-05-19T04:07:53;8.18;;;3.08;;
40252;SDS011;25972;51.854;4.534;2023-05-19T04:10:19;7.18;;;2.80;;
40252;SDS011;25972;51.854;4.534;2023-05-19T04:12:46;5.38;;;2.70;;
40252;SDS011;25972;51.854;4.534;2023-05-19T04:15:14;5.70;;;2.15;;
40252;SDS011;25972;51.854;4.534;2023-05-19T04:17:40;7.10;;;2.40;;
40252;SDS011;25972;51.854;4.534;2023-05-19T04:20:09;7.05;;;3.08;;
40252;SDS011;25972;51.854;4.534;2023-05-19T04:22:36;8.35;;;2.70;;
40252;SDS011;25972;51.854;4.534;2023-05-19T04:25:02;10.18;;;2.92;;
40252;SDS011;25972;51.854;4.534;2023-05-19T04:27:29;6.32;;;2.15;;
40252;SDS011;25972;51.854;4.534;2023-05-19T04:29:56;9.95;;;2.80;;
40252;SDS011;25972;51.854;4.534;2023-05-19T04:32:24;7.78;;;2.90;;
40252;SDS011;25972;51.854;4.534;2023-05-19T04:34:51;12.63;;;3.13;;
40252;SDS011;25972;51.854;4.534;2023-05-19T04:37:23;8.15;;;2.72;;
40252;SDS011;25972;51.854;4.534;2023-05-19T04:39:52;9.10;;;3.08;;
40252;SDS011;25972;51.854;4.534;2023-05-19T04:42:21;7.72;;;2.67;;
40252;SDS011;25972;51.854;4.534;2023-05-19T04:44:51;8.48;;;2.83;;
40252;SDS011;25972;51.854;4.534;2023-05-19T04:47:18;8.30;;;3.03;;
40252;SDS011;25972;51.854;4.534;2023-05-19T04:49:46;5.88;;;2.15;;
40252;SDS011;25972;51.854;4.534;2023-05-19T04:52:12;10.48;;;2.80;;
40252;SDS011;25972;51.854;4.534;2023-05-19T04:54:39;6.60;;;2.33;;
40252;SDS011;25972;51.854;4.534;2023-05-19T04:57:07;9.32;;;3.15;;
40252;SDS011;25972;51.854;4.534;2023-05-19T04:59:37;5.38;;;2.60;;
40252;SDS011;25972;51.854;4.534;2023-05-19T05:02:05;7.28;;;3.20;;
40252;SDS011;25972;51.854;4.534;2023-05-19T05:04:31;9.63;;;2.60;;
40252;SDS011;25972;51.854;4.534;2023-05-19T05:06:57;8.13;;;2.60;;
40252;SDS011;25972;51.854;4.534;2023-05-19T05:09:24;7.35;;;3.40;;
40252;SDS011;25972;51.854;4.534;2023-05-19T05:11:50;10.75;;;3.55;;
40252;SDS011;25972;51.854;4.534;2023-05-19T05:14:17;10.10;;;2.70;;
40252;SDS011;25972;51.854;4.534;2023-05-19T05:16:44;5.82;;;2.75;;
40252;SDS011;25972;51.854;4.534;2023-05-19T05:19:14;8.55;;;3.17;;
40252;SDS011;25972;51.854;4.534;2023-05-19T05:21:44;6.28;;;2.72;;
40252;SDS011;25972;51.854;4.534;2023-05-19T05:24:10;6.78;;;3.25;;
40252;SDS011;25972;51.854;4.534;2023-05-19T05:26:37;9.00;;;2.83;;
40252;SDS011;25972;51.854;4.534;2023-05-19T05:29:04;8.05;;;2.42;;
40252;SDS011;25972;51.854;4.534;2023-05-19T05:31:30;10.23;;;2.75;;
40252;SDS011;25972;51.854;4.534;2023-05-19T05:33:57;5.88;;;2.60;;
40252;SDS011;25972;51.854;4.534;2023-05-19T05:36:26;5.90;;;2.40;;
40252;SDS011;25972;51.854;4.534;2023-05-19T05:38:52;7.68;;;3.00;;
40252;SDS011;25972;51.854;4.534;2023-05-19T05:41:18;4.65;;;2.25;;
40252;SDS011;25972;51.854;4.534;2023-05-19T05:43:46;9.52;;;2.78;;
40252;SDS011;25972;51.854;4.534;2023-05-19T05:46:12;5.03;;;2.70;;
40252;SDS011;25972;51.854;4.534;2023-05-19T05:48:37;6.63;;;2.63;;
40252;SDS011;25972;51.854;4.534;2023-05-19T05:51:06;8.07;;;2.70;;
40252;SDS011;25972;51.854;4.534;2023-05-19T05:53:33;6.53;;;2.80;;
40252;SDS011;25972;51.854;4.534;2023-05-19T05:56:05;4.22;;;2.05;;
40252;SDS011;25972;51.854;4.534;2023-05-19T05:58:40;5.97;;;2.22;;
40252;SDS011;25972;51.854;4.534;2023-05-19T06:01:06;5.45;;;2.22;;
40252;SDS011;25972;51.854;4.534;2023-05-19T06:03:41;7.68;;;2.60;;
40252;SDS011;25972;51.854;4.534;2023-05-19T06:06:15;8.23;;;2.38;;
40252;SDS011;25972;51.854;4.534;2023-05-19T06:08:41;5.22;;;2.50;;
40252;SDS011;25972;51.854;4.534;2023-05-19T06:11:07;5.65;;;2.40;;
40252;SDS011;25972;51.854;4.534;2023-05-19T06:13:34;7.57;;;2.30;;
40252;SDS011;25972;51.854;4.534;2023-05-19T06:16:03;7.40;;;2.95;;
40252;SDS011;25972;51.854;4.534;2023-05-19T06:18:35;6.30;;;2.40;;
40252;SDS011;25972;51.854;4.534;2023-05-19T06:21:00;6.18;;;2.53;;
40252;SDS011;25972;51.854;4.534;2023-05-19T06:23:28;5.13;;;2.33;;
40252;SDS011;25972;51.854;4.534;2023-05-19T06:25:55;5.13;;;2.40;;
40252;SDS011;25972;51.854;4.534;2023-05-19T06:28:20;9.63;;;2.95;;
40252;SDS011;25972;51.854;4.534;2023-05-19T06:30:48;5.38;;;2.30;;
40252;SDS011;25972;51.854;4.534;2023-05-19T06:33:34;7.43;;;2.67;;
40252;SDS011;25972;51.854;4.534;2023-05-19T06:36:00;6.90;;;2.60;;
40252;SDS011;25972;51.854;4.534;2023-05-19T06:38:26;5.22;;;2.40;;
40252;SDS011;25972;51.854;4.534;2023-05-19T06:40:52;4.65;;;2.53;;
40252;SDS011;25972;51.854;4.534;2023-05-19T06:43:17;5.85;;;2.45;;
40252;SDS011;25972;51.854;4.534;2023-05-19T06:45:54;5.30;;;2.67;;
40252;SDS011;25972;51.854;4.534;2023-05-19T06:48:22;5.45;;;2.42;;
40252;SDS011;25972;51.854;4.534;2023-05-19T06:50:48;6.05;;;2.30;;
40252;SDS011;25972;51.854;4.534;2023-05-19T06:53:15;6.25;;;2.28;;
40252;SDS011;25972;51.854;4.534;2023-05-19T06:55:43;6.82;;;2.25;;
40252;SDS011;25972;51.854;4.534;2023-05-19T06:58:10;5.85;;;3.20;;
40252;SDS011;25972;51.854;4.534;2023-05-19T07:00:37;5.68;;;2.70;;
40252;SDS011;25972;51.854;4.534;2023-05-19T07:03:04;8.52;;;2.90;;
40252;SDS011;25972;51.854;4.534;2023-05-19T07:05:30;7.47;;;2.80;;
40252;SDS011;25972;51.854;4.534;2023-05-19T07:07:59;6.50;;;2.90;;
40252;SDS011;25972;51.854;4.534;2023-05-19T07:10:27;6.72;;;2.50;;
40252;SDS011;25972;51.854;4.534;2023-05-19T07:12:54;4.78;;;2.35;;
40252;SDS011;25972;51.854;4.534;2023-05-19T07:15:22;4.65;;;2.50;;
40252;SDS011;25972;51.854;4.534;2023-05-19T07:17:48;7.22;;;2.38;;
40252;SDS011;25972;51.854;4.534;2023-05-19T07:20:14;7.18;;;2.95;;
40252;SDS011;25972;51.854;4.534;2023-05-19T07:22:40;6.50;;;2.50;;
40252;SDS011;25972;51.854;4.534;2023-05-19T07:25:06;8.45;;;2.67;;
40252;SDS011;25972;51.854;4.534;2023-05-19T07:27:32;6.03;;;2.75;;
40252;SDS011;25972;51.854;4.534;2023-05-19T07:29:58;8.18;;;2.50;;
40252;SDS011;25972;51.854;4.534;2023-05-19T07:32:25;7.20;;;2.78;;
40252;SDS011;25972;51.854;4.534;2023-05-19T07:34:51;4.63;;;2.47;;
40252;SDS011;25972;51.854;4.534;2023-05-19T07:37:17;4.63;;;2.17;;
40252;SDS011;25972;51.854;4.534;2023-05-19T07:39:43;6.47;;;2.72;;
40252;SDS011;25972;51.854;4.534;2023-05-19T07:42:08;6.03;;;2.25;;
40252;SDS011;25972;51.854;4.534;2023-05-19T07:44:34;6.40;;;2.17;;
40252;SDS011;25972;51.854;4.534;2023-05-19T07:47:00;9.02;;;2.33;;
40252;SDS011;25972;51.854;4.534;2023-05-19T07:49:26;5.32;;;2.58;;
40252;SDS011;25972;51.854;4.534;2023-05-19T07:51:52;7.05;;;2.30;;
40252;SDS011;25972;51.854;4.534;2023-05-19T07:54:18;5.57;;;2.15;;
40252;SDS011;25972;51.854;4.534;2023-05-19T07:56:44;7.68;;;2.40;;
40252;SDS011;25972;51.854;4.534;2023-05-19T07:59:10;5.72;;;2.35;;
40252;SDS011;25972;51.854;4.534;2023-05-19T08:01:36;6.35;;;2.10;;
40252;SDS011;25972;51.854;4.534;2023-05-19T08:04:02;5.05;;;2.25;;
40252;SDS011;25972;51.854;4.534;2023-05-19T08:06:27;6.28;;;2.58;;
40252;SDS011;25972;51.854;4.534;2023-05-19T08:08:54;5.05;;;2.22;;
40252;SDS011;25972;51.854;4.534;2023-05-19T08:11:20;5.93;;;2.25;;
40252;SDS011;25972;51.854;4.534;2023-05-19T08:13:46;9.60;;;2.45;;
40252;SDS011;25972;51.854;4.534;2023-05-19T08:16:13;5.03;;;2.42;;
40252;SDS011;25972;51.854;4.534;2023-05-19T08:18:39;7.75;;;2.45;;
40252;SDS011;25972;51.854;4.534;2023-05-19T08:21:06;3.65;;;2.10;;
40252;SDS011;25972;51.854;4.534;2023-05-19T08:23:32;7.35;;;2.03;;
40252;SDS011;25972;51.854;4.534;2023-05-19T08:25:58;5.65;;;2.40;;
40252;SDS011;25972;51.854;4.534;2023-05-19T08:28:24;5.63;;;2.13;;
40252;SDS011;25972;51.854;4.534;2023-05-19T08:30:50;5.05;;;2.10;;
40252;SDS011;25972;51.854;4.534;2023-05-19T08:33:16;4.15;;;1.85;;
40252;SDS011;25972;51.854;4.534;2023-05-19T08:35:44;8.07;;;2.22;;
40252;SDS011;25972;51.854;4.534;2023-05-19T08:38:10;4.75;;;1.70;;
40252;SDS011;25972;51.854;4.534;2023-05-19T08:40:36;5.78;;;1.73;;
40252;SDS011;25972;51.854;4.534;2023-05-19T08:43:07;4.70;;;2.00;;
40252;SDS011;25972;51.854;4.534;2023-05-19T08:45:33;6.63;;;1.85;;
40252;SDS011;25972;51.854;4.534;2023-05-19T08:47:59;4.25;;;1.70;;
40252;SDS011;25972;51.854;4.534;2023-05-19T08:50:29;4.68;;;1.55;;
40252;SDS011;25972;51.854;4.534;2023-05-19T08:53:02;4.00;;;1.80;;
40252;SDS011;25972;51.854;4.534;2023-05-19T08:55:48;2.92;;;1.58;;
40252;SDS011;25972;51.854;4.534;2023-05-19T08:58:18;5.85;;;1.80;;
40252;SDS011;25972;51.854;4.534;2023-05-19T09:00:46;3.90;;;1.70;;
40252;SDS011;25972;51.854;4.534;2023-05-19T09:03:12;4.43;;;1.58;;
40252;SDS011;25972;51.854;4.534;2023-05-19T09:05:40;4.18;;;1.73;;
40252;SDS011;25972;51.854;4.534;2023-05-19T09:08:06;5.03;;;1.63;;
40252;SDS011;25972;51.854;4.534;2023-05-19T09:10:32;2.97;;;1.63;;
40252;SDS011;25972;51.854;4.534;2023-05-19T09:12:58;4.95;;;1.85;;
40252;SDS011;25972;51.854;4.534;2023-05-19T09:15:27;7.50;;;2.22;;
40252;SDS011;25972;51.854;4.534;2023-05-19T09:18:06;6.07;;;1.60;;
40252;SDS011;25972;51.854;4.534;2023-05-19T09:20:37;5.00;;;1.95;;
40252;SDS011;25972;51.854;4.534;2023-05-19T09:23:05;5.50;;;1.63;;
40252;SDS011;25972;51.854;4.534;2023-05-19T09:25:32;5.95;;;1.92;;
40252;SDS011;25972;51.854;4.534;2023-05-19T09:27:58;3.42;;;1.40;;
40252;SDS011;25972;51.854;4.534;2023-05-19T09:30:24;4.80;;;1.65;;
40252;SDS011;25972;51.854;4.534;2023-05-19T09:32:50;5.47;;;1.80;;
40252;SDS011;25972;51.854;4.534;2023-05-19T09:35:16;2.20;;;1.35;;
40252;SDS011;25972;51.854;4.534;2023-05-19T09:37:44;2.97;;;1.73;;
40252;SDS011;25972;51.854;4.534;2023-05-19T09:40:14;2.78;;;1.48;;
40252;SDS011;25972;51.854;4.534;2023-05-19T09:42:40;5.43;;;1.45;;
40252;SDS011;25972;51.854;4.534;2023-05-19T09:45:07;2.35;;;1.33;;
40252;SDS011;25972;51.854;4.534;2023-05-19T09:47:34;4.15;;;1.60;;
40252;SDS011;25972;51.854;4.534;2023-05-19T09:50:04;3.13;;;1.30;;
40252;SDS011;25972;51.854;4.534;2023-05-19T09:52:39;2.83;;;1.23;;
40252;SDS011;25972;51.854;4.534;2023-05-19T09:55:08;3.45;;;1.60;;
40252;SDS011;25972;51.854;4.534;2023-05-19T09:57:37;4.18;;;1.48;;
40252;SDS011;25972;51.854;4.534;2023-05-19T10:00:07;2.67;;;1.25;;
40252;SDS011;25972;51.854;4.534;2023-05-19T10:02:44;3.05;;;1.42;;
40252;SDS011;25972;51.854;4.534;2023-05-19T10:05:12;3.47;;;1.27;;
40252;SDS011;25972;51.854;4.534;2023-05-19T10:07:50;4.32;;;1.45;;
40252;SDS011;25972;51.854;4.534;2023-05-19T10:10:18;5.18;;;1.38;;
40252;SDS011;25972;51.854;4.534;2023-05-19T10:12:45;5.53;;;1.52;;
40252;SDS011;25972;51.854;4.534;2023-05-19T10:15:13;8.88;;;1.50;;
40252;SDS011;25972;51.854;4.534;2023-05-19T10:17:41;3.10;;;0.70;;
40252;SDS011;25972;51.854;4.534;2023-05-19T10:20:08;3.10;;;1.52;;
40252;SDS011;25972;51.854;4.534;2023-05-19T10:22:37;2.33;;;1.15;;
40252;SDS011;25972;51.854;4.534;2023-05-19T10:25:04;4.45;;;1.70;;
40252;SDS011;25972;51.854;4.534;2023-05-19T10:27:31;3.28;;;1.38;;
40252;SDS011;25972;51.854;4.534;2023-05-19T10:30:03;3.13;;;1.33;;
40252;SDS011;25972;51.854;4.534;2023-05-19T10:32:33;2.00;;;1.20;;
40252;SDS011;25972;51.854;4.534;2023-05-19T10:37:44;5.47;;;1.73;;
40252;SDS011;25972;51.854;4.534;2023-05-19T10:40:25;5.72;;;1.60;;
40252;SDS011;25972;51.854;4.534;2023-05-19T10:42:59;4.53;;;1.48;;
40252;SDS011;25972;51.854;4.534;2023-05-19T10:45:47;5.95;;;1.50;;
40252;SDS011;25972;51.854;4.534;2023-05-19T10:48:15;3.72;;;1.35;;
40252;SDS011;25972;51.854;4.534;2023-05-19T10:50:46;3.33;;;1.67;;
40252;SDS011;25972;51.854;4.534;2023-05-19T10:53:16;5.22;;;1.58;;
40252;SDS011;25972;51.854;4.534;2023-05-19T10:55:50;5.28;;;1.40;;
40252;SDS011;25972;51.854;4.534;2023-05-19T10:58:50;3.92;;;1.25;;
40252;SDS011;25972;51.854;4.534;2023-05-19T11:01:17;2.57;;;1.27;;
40252;SDS011;25972;51.854;4.534;2023-05-19T11:06:17;3.95;;;1.17;;
40252;SDS011;25972;51.854;4.534;2023-05-19T11:08:58;3.22;;;1.63;;
40252;SDS011;25972;51.854;4.534;2023-05-19T11:11:26;3.80;;;1.20;;
40252;SDS011;25972;51.854;4.534;2023-05-19T11:14:08;3.72;;;1.27;;
40252;SDS011;25972;51.854;4.534;2023-05-19T11:16:35;5.05;;;1.23;;
40252;SDS011;25972;51.854;4.534;2023-05-19T11:19:01;5.03;;;1.50;;
40252;SDS011;25972;51.854;4.534;2023-05-19T11:21:49;2.00;;;1.20;;
40252;SDS011;25972;51.854;4.534;2023-05-19T11:27:21;4.32;;;1.58;;
40252;SDS011;25972;51.854;4.534;2023-05-19T11:32:31;4.22;;;1.60;;
40252;SDS011;25972;51.854;4.534;2023-05-19T11:34:59;2.85;;;1.27;;
40252;SDS011;25972;51.854;4.534;2023-05-19T11:37:26;4.30;;;1.80;;
40252;SDS011;25972;51.854;4.534;2023-05-19T11:39:54;4.07;;;1.50;;
40252;SDS011;25972;51.854;4.534;2023-05-19T11:42:20;2.90;;;1.17;;
40252;SDS011;25972;51.854;4.534;2023-05-19T11:44:47;3.97;;;1.38;;
40252;SDS011;25972;51.854;4.534;2023-05-19T11:47:15;3.78;;;1.25;;
40252;SDS011;25972;51.854;4.534;2023-05-19T11:49:42;4.30;;;1.27;;
40252;SDS011;25972;51.854;4.534;2023-05-19T11:52:09;3.75;;;1.52;;
40252;SDS011;25972;51.854;4.534;2023-05-19T11:54:35;5.38;;;1.92;;
40252;SDS011;25972;51.854;4.534;2023-05-19T11:57:01;5.18;;;1.45;;
40252;SDS011;25972;51.854;4.534;2023-05-19T11:59:28;3.92;;;1.48;;
40252;SDS011;25972;51.854;4.534;2023-05-19T12:02:01;3.90;;;1.40;;
40252;SDS011;25972;51.854;4.534;2023-05-19T12:04:38;2.40;;;1.35;;
40252;SDS011;25972;51.854;4.534;2023-05-19T12:07:04;2.97;;;1.40;;
40252;SDS011;25972;51.854;4.534;2023-05-19T12:09:30;3.00;;;1.30;;
40252;SDS011;25972;51.854;4.534;2023-05-19T12:11:56;3.08;;;1.45;;
40252;SDS011;25972;51.854;4.534;2023-05-19T12:14:24;6.63;;;1.55;;
40252;SDS011;25972;51.854;4.534;2023-05-19T12:16:50;3.88;;;1.40;;
40252;SDS011;25972;51.854;4.534;2023-05-19T12:19:16;3.42;;;1.50;;
40252;SDS011;25972;51.854;4.534;2023-05-19T12:21:42;5.18;;;1.70;;
40252;SDS011;25972;51.854;4.534;2023-05-19T12:24:08;3.92;;;1.60;;
40252;SDS011;25972;51.854;4.534;2023-05-19T12:26:34;4.03;;;1.55;;
40252;SDS011;25972;51.854;4.534;2023-05-19T12:29:03;3.47;;;1.52;;
40252;SDS011;25972;51.854;4.534;2023-05-19T12:31:31;3.65;;;1.38;;
40252;SDS011;25972;51.854;4.534;2023-05-19T12:33:58;3.42;;;1.63;;
40252;SDS011;25972;51.854;4.534;2023-05-19T12:36:25;5.72;;;1.40;;
40252;SDS011;25972;51.854;4.534;2023-05-19T12:38:53;5.95;;;1.50;;
40252;SDS011;25972;51.854;4.534;2023-05-19T12:41:19;3.33;;;1.70;;
40252;SDS011;25972;51.854;4.534;2023-05-19T12:43:45;4.32;;;1.60;;
40252;SDS011;25972;51.854;4.534;2023-05-19T12:46:11;3.30;;;1.40;;
40252;SDS011;25972;51.854;4.534;2023-05-19T12:48:43;2.70;;;1.50;;
40252;SDS011;25972;51.854;4.534;2023-05-19T12:51:15;5.50;;;2.45;;
40252;SDS011;25972;51.854;4.534;2023-05-19T12:53:42;3.13;;;1.35;;
40252;SDS011;25972;51.854;4.534;2023-05-19T12:56:11;4.00;;;1.70;;
40252;SDS011;25972;51.854;4.534;2023-05-19T12:58:38;4.68;;;1.80;;
40252;SDS011;25972;51.854;4.534;2023-05-19T13:01:14;6.70;;;1.33;;
40252;SDS011;25972;51.854;4.534;2023-05-19T13:03:41;3.40;;;1.70;;
40252;SDS011;25972;51.854;4.534;2023-05-19T13:06:07;6.07;;;1.88;;
40252;SDS011;25972;51.854;4.534;2023-05-19T13:08:35;5.78;;;1.33;;
40252;SDS011;25972;51.854;4.534;2023-05-19T13:11:02;4.68;;;1.45;;
40252;SDS011;25972;51.854;4.534;2023-05-19T13:13:28;4.68;;;1.80;;
40252;SDS011;25972;51.854;4.534;2023-05-19T13:15:54;6.20;;;2.13;;
40252;SDS011;25972;51.854;4.534;2023-05-19T13:18:20;6.72;;;1.88;;
40252;SDS011;25972;51.854;4.534;2023-05-19T13:20:46;3.88;;;1.80;;
40252;SDS011;25972;51.854;4.534;2023-05-19T13:23:14;4.43;;;1.45;;
40252;SDS011;25972;51.854;4.534;2023-05-19T13:25:40;4.53;;;1.80;;
40252;SDS011;25972;51.854;4.534;2023-05-19T13:28:07;2.22;;;1.23;;
40252;SDS011;25972;51.854;4.534;2023-05-19T13:30:34;7.80;;;1.60;;
40252;SDS011;25972;51.854;4.534;2023-05-19T13:33:02;4.80;;;1.90;;
40252;SDS011;25972;51.854;4.534;2023-05-19T13:35:28;4.93;;;1.30;;
40252;SDS011;25972;51.854;4.534;2023-05-19T13:37:54;6.90;;;1.73;;
40252;SDS011;25972;51.854;4.534;2023-05-19T13:40:20;3.83;;;1.73;;
40252;SDS011;25972;51.854;4.534;2023-05-19T13:42:48;5.65;;;1.80;;
40252;SDS011;25972;51.854;4.534;2023-05-19T13:45:13;3.75;;;1.63;;
40252;SDS011;25972;51.854;4.534;2023-05-19T13:47:39;7.43;;;1.70;;
40252;SDS011;25972;51.854;4.534;2023-05-19T13:50:05;5.00;;;1.80;;
40252;SDS011;25972;51.854;4.534;2023-05-19T13:52:31;7.07;;;1.70;;
40252;SDS011;25972;51.854;4.534;2023-05-19T13:54:57;3.55;;;1.42;;
40252;SDS011;25972;51.854;4.534;2023-05-19T13:57:23;6.05;;;1.92;;
40252;SDS011;25972;51.854;4.534;2023-05-19T13:59:50;5.13;;;1.73;;
40252;SDS011;25972;51.854;4.534;2023-05-19T14:02:16;6.30;;;2.17;;
40252;SDS011;25972;51.854;4.534;2023-05-19T14:04:42;4.40;;;1.50;;
40252;SDS011;25972;51.854;4.534;2023-05-19T14:07:08;2.60;;;1.60;;
40252;SDS011;25972;51.854;4.534;2023-05-19T14:09:34;4.45;;;1.50;;
40252;SDS011;25972;51.854;4.534;2023-05-19T14:12:00;4.28;;;1.60;;
40252;SDS011;25972;51.854;4.534;2023-05-19T14:14:26;6.30;;;1.88;;
40252;SDS011;25972;51.854;4.534;2023-05-19T14:16:52;4.60;;;1.67;;
40252;SDS011;25972;51.854;4.534;2023-05-19T14:19:18;2.70;;;1.20;;
40252;SDS011;25972;51.854;4.534;2023-05-19T14:21:44;4.65;;;1.60;;
40252;SDS011;25972;51.854;4.534;2023-05-19T14:24:09;4.88;;;1.90;;
40252;SDS011;25972;51.854;4.534;2023-05-19T14:26:35;3.35;;;1.63;;
40252;SDS011;25972;51.854;4.534;2023-05-19T14:29:01;3.70;;;1.70;;
40252;SDS011;25972;51.854;4.534;2023-05-19T14:31:27;5.07;;;1.70;;
40252;SDS011;25972;51.854;4.534;2023-05-19T14:33:53;5.10;;;2.10;;
40252;SDS011;25972;51.854;4.534;2023-05-19T14:36:19;3.13;;;1.67;;
40252;SDS011;25972;51.854;4.534;2023-05-19T14:38:44;6.20;;;1.77;;
40252;SDS011;25972;51.854;4.534;2023-05-19T14:41:10;5.60;;;1.65;;
40252;SDS011;25972;51.854;4.534;2023-05-19T14:43:36;4.90;;;1.73;;
40252;SDS011;25972;51.854;4.534;2023-05-19T14:46:02;2.80;;;1.50;;
40252;SDS011;25972;51.854;4.534;2023-05-19T14:48:28;4.00;;;1.80;;
40252;SDS011;25972;51.854;4.534;2023-05-19T14:50:55;2.70;;;1.30;;
40252;SDS011;25972;51.854;4.534;2023-05-19T14:53:21;5.53;;;1.60;;
40252;SDS011;25972;51.854;4.534;2023-05-19T14:55:47;3.42;;;1.65;;
40252;SDS011;25972;51.854;4.534;2023-05-19T14:58:15;6.22;;;1.67;;
40252;SDS011;25972;51.854;4.534;2023-05-19T15:00:42;2.20;;;1.23;;
40252;SDS011;25972;51.854;4.534;2023-05-19T15:03:08;5.20;;;1.50;;
40252;SDS011;25972;51.854;4.534;2023-05-19T15:05:35;5.90;;;1.70;;
40252;SDS011;25972;51.854;4.534;2023-05-19T15:08:02;3.63;;;1.67;;
40252;SDS011;25972;51.854;4.534;2023-05-19T15:10:28;2.03;;;1.35;;
40252;SDS011;25972;51.854;4.534;2023-05-19T15:12:53;3.22;;;1.77;;
40252;SDS011;25972;51.854;4.534;2023-05-19T15:15:21;4.25;;;1.50;;
40252;SDS011;25972;51.854;4.534;2023-05-19T15:17:47;3.67;;;1.60;;
40252;SDS011;25972;51.854;4.534;2023-05-19T15:20:13;5.40;;;1.65;;